Ralph Calhoun

About
Name: Ralph Calhoun
Identifier:  TAL/PATA
Serves:  Tanana, Alaska
Owner:  State of Alaska DOT&PF - Northern Region
Public/Private:  Public
Local Time:  25. Aug 00:55 AKDT
Description: Ralph M. Calhoun Memorial Airport is a state owned, public use airport located one nautical mile west of the central business district of Tanana, a city in the Yukon-Koyukuk Census Area of the U.S. state of Alaska.
Source: Wikipedia
Location
Runways
Identifier Length (m/ft) Surface
7/25 4,400/4,400 Gravel
Flights per Day
2 flights
Distance: 204km (126mi)
Punctuality
55% (1 flights per day delayed)
Delay Average: 73 minutes
Current Weather
 4 C (Humidity: 86%)
  5kt (9km/h / 5mph) from 40°
  16km (10 mi.)
 
 METAR PATA 250752Z AUTO 04005KT 10SM CLR 04/02 A2979 RMK AO2 SLP091 T00390017 TSNO

Current Flights

Departures
Number Departure To Airline
Arrivals
Number Arrival From Airline
 8V445 16:05  Fairbanks  Astral Aviation

Current Delays

Departures
N/A
Arrivals
N/A

Destinations

Top Destinations
Airport Flights
per week
Seats
per week
  Anchorage (ANC) 0 - 0 0

Airlines & Planes

Top Airlines
Airline Flights
per Day
Seats
per Day
SkyBus International Airlines 0 -
Top Plane Types
Model Flights Seats
Pilatus PC-12 0.0/day - 0